Time;durP1;ratioP1;P1;durP2;ratioP2;P2;SDS_P1;SDS_P2;PMS_P1;PMS_P2;Temp;Humidity;BMP_temperature;BMP_pressure;BME280_temperature;BME280_humidity;BME280_pressure;Samples;Min_cycle;Max_cycle;Signal;HPM_P1;HPM_P2
2022/07/09 00:02:08;;;;;;;16.30;11.52;;;;;;;15.37;89.29;102817.59;6125765;23;20002;-80
2022/07/09 00:04:33;;;;;;;16.10;11.48;;;;;;;15.42;89.02;102829.41;6098529;23;20017;-74
2022/07/09 00:07:00;;;;;;;17.48;12.40;;;;;;;15.40;89.58;102840.84;6125893;23;20002;-74
2022/07/09 00:09:25;;;;;;;17.55;12.98;;;;;;;15.38;89.56;102840.09;6125924;23;20002;-74
2022/07/09 00:11:52;;;;;;;15.55;12.65;;;;;;;15.34;89.78;102835.94;6125887;23;20534;-74
2022/07/09 00:14:17;;;;;;;14.70;12.38;;;;;;;15.31;89.75;102842.16;6125570;23;20081;-74
2022/07/09 00:16:43;;;;;;;16.48;11.95;;;;;;;15.20;89.98;102829.69;6125718;23;20508;-75
2022/07/09 00:19:08;;;;;;;15.75;11.48;;;;;;;15.17;89.38;102842.03;6125869;23;20002;-74
2022/07/09 00:21:33;;;;;;;15.07;11.75;;;;;;;15.07;89.67;102820.81;6099252;23;20057;-74
2022/07/09 00:23:59;;;;;;;15.75;13.10;;;;;;;15.10;89.74;102844.06;6125944;23;20006;-76
2022/07/09 00:26:24;;;;;;;14.98;13.38;;;;;;;15.09;89.95;102845.00;6125499;23;20009;-74
2022/07/09 00:28:49;;;;;;;19.33;14.63;;;;;;;15.04;90.03;102846.97;6125687;23;20012;-74
2022/07/09 00:31:14;;;;;;;21.10;16.15;;;;;;;15.02;90.15;102835.81;6125594;23;19998;-76
2022/07/09 00:33:40;;;;;;;19.95;15.77;;;;;;;15.01;90.60;102834.13;6125426;23;20037;-74
2022/07/09 00:36:05;;;;;;;19.23;15.30;;;;;;;14.98;90.48;102833.44;6125791;23;20479;-73
2022/07/09 00:38:31;;;;;;;21.58;17.20;;;;;;;14.92;90.48;102838.03;6125174;23;20428;-74
2022/07/09 00:40:56;;;;;;;21.13;16.40;;;;;;;14.92;90.94;102839.78;6125372;23;20010;-74
2022/07/09 00:43:23;;;;;;;23.02;17.50;;;;;;;14.86;91.00;102845.31;6125688;23;20005;-74
2022/07/09 00:45:49;;;;;;;21.52;15.90;;;;;;;14.69;90.74;102824.47;6125394;23;20002;-74
2022/07/09 00:48:15;;;;;;;17.67;15.32;;;;;;;14.72;91.30;102832.94;6125286;23;20009;-73
2022/07/09 00:50:43;;;;;;;21.23;15.20;;;;;;;14.54;91.19;102798.28;6125575;23;20009;-74
2022/07/09 00:53:12;;;;;;;18.08;15.05;;;;;;;14.61;91.30;102823.06;6099306;23;20380;-80
2022/07/09 00:55:38;;;;;;;27.05;17.15;;;;;;;14.72;91.71;102832.94;6125534;23;20077;-74
2022/07/09 00:58:03;;;;;;;21.15;16.05;;;;;;;14.68;91.27;102831.44;6125327;23;20428;-74
2022/07/09 01:00:29;;;;;;;22.52;16.45;;;;;;;14.68;91.57;102836.63;6125495;23;20006;-78
2022/07/09 01:02:55;;;;;;;18.20;14.77;;;;;;;14.61;91.32;102820.47;6125469;23;20064;-74
2022/07/09 01:05:21;;;;;;;20.98;15.57;;;;;;;14.63;91.50;102834.22;6099586;23;20044;-72
2022/07/09 01:07:46;;;;;;;16.95;14.93;;;;;;;14.37;91.27;102800.00;6125773;23;20034;-75
2022/07/09 01:10:12;;;;;;;22.95;15.73;;;;;;;14.48;91.80;102808.16;6125667;23;20408;-78
2022/07/09 01:12:38;;;;;;;19.58;14.90;;;;;;;14.54;91.56;102834.66;6125609;23;20010;-80
2022/07/09 01:15:05;;;;;;;19.85;16.10;;;;;;;14.45;91.93;102818.66;6125139;23;20042;-75
2022/07/09 01:17:40;;;;;;;21.35;16.30;;;;;;;14.48;92.43;102823.75;6125576;23;20006;-73
2022/07/09 01:20:06;;;;;;;21.83;16.92;;;;;;;14.43;92.27;102820.47;6125584;23;20052;-74
2022/07/09 01:22:32;;;;;;;21.85;17.10;;;;;;;14.47;92.87;102815.09;6099485;23;20336;-78
2022/07/09 01:25:00;;;;;;;24.15;17.70;;;;;;;14.52;93.54;102814.88;6125299;23;20006;-74
2022/07/09 01:27:25;;;;;;;26.98;17.77;;;;;;;14.53;94.42;102809.59;6125528;23;20060;-79
2022/07/09 01:29:50;;;;;;;23.27;17.83;;;;;;;14.47;95.37;102812.50;6098786;23;20014;-74
2022/07/09 01:32:16;;;;;;;23.77;17.45;;;;;;;14.46;95.56;102809.97;6125361;23;20010;-74
2022/07/09 01:34:41;;;;;;;25.70;18.00;;;;;;;14.38;95.51;102799.06;6125492;23;20324;-73
2022/07/09 01:37:07;;;;;;;27.52;19.30;;;;;;;14.37;95.25;102795.63;6125647;23;20077;-74
2022/07/09 01:39:32;;;;;;;26.33;18.58;;;;;;;14.41;95.22;102796.31;6125127;23;20009;-74
2022/07/09 01:41:58;;;;;;;25.50;19.00;;;;;;;14.30;95.37;102776.88;6099291;23;20044;-75
2022/07/09 01:44:23;;;;;;;26.02;18.85;;;;;;;14.43;95.55;102800.50;6125395;23;20117;-74
2022/07/09 01:46:49;;;;;;;28.13;19.80;;;;;;;14.43;95.54;102800.50;6125162;23;20121;-74
2022/07/09 01:49:14;;;;;;;23.25;18.73;;;;;;;14.35;95.22;102795.72;6126019;23;20010;-75
2022/07/09 01:51:40;;;;;;;26.67;18.27;;;;;;;14.25;95.44;102781.44;6127381;23;20088;-74
2022/07/09 01:54:05;;;;;;;23.92;17.77;;;;;;;14.31;95.47;102790.72;6127053;23;20029;-75
2022/07/09 01:56:31;;;;;;;23.17;18.00;;;;;;;14.31;95.77;102794.16;6127355;23;20013;-74
2022/07/09 01:58:56;;;;;;;25.83;18.63;;;;;;;14.13;95.47;102770.78;6127026;23;20005;-77
2022/07/09 02:01:22;;;;;;;26.90;18.88;;;;;;;14.25;95.62;102794.44;6127283;23;20070;-77
2022/07/09 02:03:47;;;;;;;26.05;19.17;;;;;;;14.22;95.60;102791.13;6099966;23;20010;-77
2022/07/09 02:06:13;;;;;;;26.77;19.13;;;;;;;14.06;96.00;102771.09;6127084;23;20006;-75
2022/07/09 02:08:39;;;;;;;27.50;20.00;;;;;;;13.99;95.92;102764.50;6126666;23;20386;-75
2022/07/09 02:11:05;;;;;;;26.60;19.20;;;;;;;14.10;96.55;102787.38;6127047;23;20006;-78
2022/07/09 02:13:31;;;;;;;28.70;19.98;;;;;;;14.09;96.40;102790.88;6126777;23;20009;-74
2022/07/09 02:15:56;;;;;;;27.23;19.15;;;;;;;13.97;96.57;102774.13;6100817;23;20064;-74
2022/07/09 02:18:21;;;;;;;27.52;19.90;;;;;;;14.08;96.77;102789.19;6126520;23;20002;-76
2022/07/09 02:20:47;;;;;;;26.00;19.27;;;;;;;14.04;96.34;102783.28;6126498;23;20002;-77
2022/07/09 02:23:12;;;;;;;27.92;21.17;;;;;;;14.05;96.85;102790.16;6127078;23;20412;-76
2022/07/09 02:25:37;;;;;;;25.83;20.00;;;;;;;14.04;96.70;102791.06;6127068;23;20022;-78
2022/07/09 02:28:03;;;;;;;31.45;22.40;;;;;;;14.01;97.16;102783.44;6126732;23;20491;-79
2022/07/09 02:30:28;;;;;;;25.33;18.10;;;;;;;13.89;96.71;102768.44;6126688;23;19998;-79
2022/07/09 02:32:54;;;;;;;19.42;15.48;;;;;;;13.84;96.31;102766.94;6126609;23;20002;-80
2022/07/09 02:35:19;;;;;;;22.45;15.55;;;;;;;13.82;96.74;102763.56;6126294;23;20014;-78
2022/07/09 02:37:44;;;;;;;18.10;14.35;;;;;;;13.75;96.47;102755.22;6126421;23;20420;-74
2022/07/09 02:40:10;;;;;;;19.83;14.35;;;;;;;13.78;96.04;102770.69;6126586;23;20080;-77
2022/07/09 02:42:36;;;;;;;17.95;13.25;;;;;;;13.74;96.16;102764.75;6126458;23;20458;-76
2022/07/09 02:45:02;;;;;;;16.75;12.88;;;;;;;13.66;95.54;102764.25;6126535;23;20006;-77
2022/07/09 02:47:27;;;;;;;17.70;12.93;;;;;;;13.47;95.30;102735.72;6127150;23;20002;-75
2022/07/09 02:49:52;;;;;;;19.17;13.65;;;;;;;13.59;95.61;102757.69;6126436;23;20009;-77
2022/07/09 02:52:18;;;;;;;19.38;14.15;;;;;;;13.44;95.50;102733.22;6126661;23;20010;-74
2022/07/09 02:54:43;;;;;;;20.08;14.93;;;;;;;13.47;95.40;102745.25;6126368;23;20041;-79
2022/07/09 02:57:08;;;;;;;20.65;14.98;;;;;;;13.45;95.18;102749.66;6126503;23;20041;-75
2022/07/09 02:59:34;;;;;;;23.10;15.57;;;;;;;13.49;95.42;102759.00;6126191;23;20117;-77
2022/07/09 03:02:00;;;;;;;23.45;18.13;;;;;;;13.48;95.87;102757.31;6126462;23;20368;-75
2022/07/09 03:04:26;;;;;;;25.75;18.40;;;;;;;13.48;96.08;102762.50;6126118;23;20085;-79
2022/07/09 03:06:51;;;;;;;27.65;17.92;;;;;;;13.45;96.24;102760.03;6126196;23;20045;-75
2022/07/09 03:09:17;;;;;;;21.70;16.00;;;;;;;13.42;96.16;102766.22;6075553;23;20012;-76
2022/07/09 03:11:42;;;;;;;20.85;15.70;;;;;;;13.40;96.42;102759.41;6126421;23;20026;-76
2022/07/09 03:14:08;;;;;;;21.50;14.43;;;;;;;13.34;96.59;102763.09;6126531;23;20006;-74
2022/07/09 03:16:33;;;;;;;20.98;15.07;;;;;;;13.20;96.14;102739.53;6126175;23;20009;-78
2022/07/09 03:18:58;;;;;;;19.38;13.77;;;;;;;13.29;95.92;102762.47;6126077;23;20374;-78
2022/07/09 03:21:24;;;;;;;18.23;13.73;;;;;;;13.25;95.99;102760.91;6125945;23;20324;-77
2022/07/09 03:23:49;;;;;;;20.95;13.80;;;;;;;13.19;95.72;102753.41;6126187;23;20013;-74
2022/07/09 03:26:14;;;;;;;20.85;15.30;;;;;;;13.19;96.07;102761.19;6126606;23;20001;-78
2022/07/09 03:28:40;;;;;;;21.45;16.02;;;;;;;13.16;96.12;102763.84;6126089;23;20013;-74
2022/07/09 03:31:05;;;;;;;21.05;16.60;;;;;;;13.17;95.94;102768.13;6126058;23;20440;-74
2022/07/09 03:33:30;;;;;;;22.55;16.38;;;;;;;13.17;96.40;102768.13;6125717;23;20033;-74
2022/07/09 03:35:56;;;;;;;20.23;15.10;;;;;;;13.14;96.07;102771.72;6126200;23;20005;-79
2022/07/09 03:38:22;;;;;;;17.63;13.13;;;;;;;13.10;96.49;102749.41;6125891;23;20002;-78
2022/07/09 03:40:47;;;;;;;17.38;13.50;;;;;;;13.12;96.46;102757.97;6125797;23;20014;-75
2022/07/09 03:43:13;;;;;;;18.75;12.93;;;;;;;13.04;96.39;102751.41;6099577;23;20327;-80
2022/07/09 03:45:39;;;;;;;18.45;13.32;;;;;;;13.05;96.20;102758.28;6125827;23;19997;-78
2022/07/09 03:48:04;;;;;;;15.88;12.40;;;;;;;13.05;96.55;102758.28;6125902;23;20065;-78
2022/07/09 03:50:31;;;;;;;18.05;13.57;;;;;;;12.95;96.12;102751.81;6125799;23;20085;-79
2022/07/09 03:52:56;;;;;;;18.77;14.07;;;;;;;13.02;96.39;102759.28;6125879;23;20486;-76
2022/07/09 03:55:21;;;;;;;19.52;14.70;;;;;;;13.03;96.40;102760.13;6126127;23;20037;-75
2022/07/09 03:57:47;;;;;;;18.70;15.10;;;;;;;13.04;95.99;102757.44;6099487;23;20117;-79
2022/07/09 04:00:12;;;;;;;21.15;16.25;;;;;;;13.09;95.91;102755.50;6125485;23;20425;-79
2022/07/09 04:02:38;;;;;;;22.50;16.05;;;;;;;12.92;96.34;102721.66;6125918;23;20009;-79
2022/07/09 04:05:04;;;;;;;21.67;14.95;;;;;;;13.07;95.86;102740.91;6125716;23;20080;-80
2022/07/09 04:07:30;;;;;;;19.85;15.05;;;;;;;13.19;95.71;102753.41;6125813;23;20148;-80
2022/07/09 04:09:55;;;;;;;19.13;14.82;;;;;;;13.33;95.76;102764.00;6125842;23;20056;-75
2022/07/09 04:12:21;;;;;;;21.00;16.13;;;;;;;13.39;95.43;102742.16;6125260;23;20014;-78
2022/07/09 04:14:46;;;;;;;21.55;16.75;;;;;;;13.53;95.04;102741.53;6125525;23;20309;-79
2022/07/09 04:17:11;;;;;;;24.90;17.13;;;;;;;13.55;95.41;102742.28;6125727;23;20001;-76
2022/07/09 04:19:37;;;;;;;26.67;17.95;;;;;;;13.57;95.76;102746.53;6125750;23;20309;-75
2022/07/09 04:22:03;;;;;;;25.25;18.10;;;;;;;13.60;95.66;102745.53;6099025;23;20045;-80
2022/07/09 04:24:28;;;;;;;23.08;17.65;;;;;;;13.61;95.47;102744.63;6099468;23;20012;-79
2022/07/09 04:26:54;;;;;;;24.65;17.77;;;;;;;13.43;95.62;102704.75;6125980;23;20010;-78
2022/07/09 04:29:20;;;;;;;25.48;17.92;;;;;;;13.77;95.54;102745.63;6125773;23;20061;-80
2022/07/09 04:31:45;;;;;;;25.90;19.42;;;;;;;13.76;95.47;102730.94;6126043;23;20069;-80
2022/07/09 04:34:10;;;;;;;25.98;19.92;;;;;;;14.06;94.68;102739.91;6125601;23;20010;-75
2022/07/09 04:36:35;;;;;;;28.20;20.08;;;;;;;14.14;94.12;102705.75;6125347;23;20010;-75
2022/07/09 04:39:01;;;;;;;28.42;21.70;;;;;;;15.01;92.09;102719.66;6125314;23;20002;-77
2022/07/09 04:41:28;;;;;;;24.95;19.67;;;;;;;16.21;87.15;102740.13;6125822;23;20412;-80
2022/07/09 04:43:53;;;;;;;23.90;18.05;;;;;;;17.24;81.17;102751.50;6125424;23;20005;-78
2022/07/09 04:46:21;;;;;;;20.73;16.52;;;;;;;17.39;80.48;102750.53;6125720;23;20021;-78
2022/07/09 04:48:46;;;;;;;21.45;15.85;;;;;;;17.36;80.15;102752.50;6099142;23;20336;-75
2022/07/09 04:51:11;;;;;;;22.30;16.55;;;;;;;17.15;80.75;102752.03;6125673;23;20006;-79
2022/07/09 04:53:37;;;;;;;21.63;16.17;;;;;;;16.75;81.74;102723.09;6125494;23;20049;-78
2022/07/09 04:56:02;;;;;;;21.75;16.67;;;;;;;16.59;82.65;102717.91;6125690;23;20014;-80
2022/07/09 04:58:29;;;;;;;24.88;18.30;;;;;;;16.50;84.59;102736.69;6099021;23;20009;-80
2022/07/09 05:00:54;;;;;;;26.67;19.38;;;;;;;16.25;86.52;102721.63;6125957;23;20029;-79
2022/07/09 05:03:20;;;;;;;30.35;22.77;;;;;;;16.20;87.32;102728.00;6125840;23;20423;-79
2022/07/09 05:05:45;;;;;;;30.13;21.52;;;;;;;16.16;87.92;102721.31;6125899;23;20413;-80
2022/07/09 05:08:10;;;;;;;33.58;23.33;;;;;;;16.14;89.38;102723.16;6125203;23;20056;-79
2022/07/09 05:10:36;;;;;;;32.97;24.45;;;;;;;16.14;89.79;102724.00;6125550;23;20108;-79
2022/07/09 05:13:01;;;;;;;31.80;24.00;;;;;;;16.05;89.80;102708.88;6125781;23;20336;-78
2022/07/09 05:15:27;;;;;;;27.58;21.55;;;;;;;16.23;89.92;102704.41;6125133;23;20424;-78
2022/07/09 05:17:52;;;;;;;22.63;15.18;;;;;;;16.59;88.34;102717.06;6099917;23;20005;-77
2022/07/09 05:20:17;;;;;;;23.85;17.70;;;;;;;16.80;87.26;102720.22;6125533;23;20002;-78
2022/07/09 05:22:43;;;;;;;34.28;25.17;;;;;;;16.66;88.44;102705.34;6125518;23;20416;-77
2022/07/09 05:25:08;;;;;;;30.90;22.83;;;;;;;16.88;87.58;102721.44;6127329;23;20005;-78
2022/07/09 05:27:44;;;;;;;28.63;22.67;;;;;;;17.02;87.24;102719.78;6127444;23;20009;-77
2022/07/09 05:30:10;;;;;;;33.95;24.05;;;;;;;17.30;86.12;102734.59;6127343;23;20002;-78
2022/07/09 05:32:35;;;;;;;31.52;23.17;;;;;;;17.42;86.17;102728.66;6127050;23;20052;-78
2022/07/09 05:35:00;;;;;;;32.47;24.50;;;;;;;17.39;86.31;102718.38;6127210;23;20009;-78
2022/07/09 05:37:26;;;;;;;25.92;18.70;;;;;;;17.56;85.15;102722.56;6127006;23;20317;-78
2022/07/09 05:39:51;;;;;;;35.75;25.35;;;;;;;17.66;85.21;102728.88;6126516;23;20018;-76
2022/07/09 05:42:16;;;;;;;35.53;26.67;;;;;;;18.02;84.43;102729.19;6127113;23;20013;-77
2022/07/09 05:44:41;;;;;;;34.00;23.42;;;;;;;18.26;82.05;102715.47;6127460;23;19998;-76
2022/07/09 05:47:07;;;;;;;44.67;30.40;;;;;;;18.42;80.84;102704.84;6127371;23;20089;-79
2022/07/09 05:49:32;;;;;;;37.97;25.75;;;;;;;19.07;78.62;102720.50;6127032;23;20002;-78
2022/07/09 05:51:58;;;;;;;34.88;23.08;;;;;;;19.54;76.22;102714.56;6126919;23;20002;-78
2022/07/09 05:54:23;;;;;;;33.70;25.30;;;;;;;19.81;74.58;102709.16;6126807;23;20314;-78
2022/07/09 05:56:50;;;;;;;22.83;18.15;;;;;;;20.53;72.59;102712.56;6127225;23;20010;-76
2022/07/09 05:59:15;;;;;;;37.20;26.65;;;;;;;21.30;69.74;102717.22;6127154;23;20010;-77
2022/07/09 06:01:42;;;;;;;22.83;15.80;;;;;;;22.32;65.54;102703.69;6127003;23;20494;-78
2022/07/09 06:04:08;;;;;;;38.00;23.92;;;;;;;22.77;63.24;102706.03;6127167;23;20368;-79
2022/07/09 06:06:33;;;;;;;37.42;27.27;;;;;;;22.93;62.10;102681.88;6126472;23;20006;-82
2022/07/09 06:08:59;;;;;;;34.22;26.27;;;;;;;22.92;61.07;102680.22;6127052;23;20008;-85
2022/07/09 06:11:24;;;;;;;31.30;22.35;;;;;;;23.13;61.02;102723.16;6126821;23;20432;-83
2022/07/09 06:13:49;;;;;;;33.92;25.27;;;;;;;22.63;62.01;102728.28;6126754;23;20013;-82
2022/07/09 06:16:15;;;;;;;35.25;25.08;;;;;;;22.19;63.37;102730.16;6126789;23;20417;-78
2022/07/09 06:18:40;;;;;;;31.65;24.02;;;;;;;21.85;64.36;102736.50;6126877;23;20010;-83
2022/07/09 06:21:05;;;;;;;33.00;23.50;;;;;;;21.86;63.71;102739.00;6126665;23;20034;-84
2022/07/09 06:23:31;;;;;;;34.65;26.50;;;;;;;21.54;65.38;102735.50;6126488;23;20037;-81
2022/07/09 06:25:56;;;;;;;33.22;22.67;;;;;;;21.24;66.25;102742.16;6126667;23;20017;-79
2022/07/09 06:28:21;;;;;;;33.65;24.50;;;;;;;21.14;66.88;102730.69;6126624;23;20002;-74
2022/07/09 06:30:47;;;;;;;39.38;25.63;;;;;;;21.11;67.04;102702.84;6126839;23;20009;-84
2022/07/09 06:33:12;;;;;;;24.85;18.40;;;;;;;21.64;65.96;102731.16;6126695;23;20057;-83
2022/07/09 06:35:38;;;;;;;39.15;29.75;;;;;;;21.71;66.21;102717.38;6099659;23;20033;-74
2022/07/09 06:38:04;;;;;;;36.75;26.77;;;;;;;22.70;63.75;102729.41;6126837;23;20452;-83
2022/07/09 06:40:29;;;;;;;37.83;27.98;;;;;;;23.44;61.18;102739.78;6126401;23;20045;-72
2022/07/09 06:42:54;;;;;;;31.67;24.83;;;;;;;23.65;59.24;102737.91;6126303;23;20013;-82
2022/07/09 06:45:20;;;;;;;32.15;22.65;;;;;;;23.51;59.49;102733.00;6126606;23;20017;-72
2022/07/09 06:47:45;;;;;;;30.77;23.52;;;;;;;23.55;59.57;102726.47;6127058;23;20081;-81
2022/07/09 06:50:11;;;;;;;26.17;19.92;;;;;;;23.84;58.00;102715.16;6100168;23;20065;-75
2022/07/09 06:52:36;;;;;;;31.20;22.00;;;;;;;24.25;57.86;102703.50;6126716;23;20002;-77
2022/07/09 06:55:02;;;;;;;22.40;16.38;;;;;;;25.13;55.34;102692.56;6126255;23;20332;-79
2022/07/09 06:57:28;;;;;;;22.73;16.92;;;;;;;26.90;51.14;102721.78;6126533;23;20076;-75
2022/07/09 06:59:54;;;;;;;27.17;20.30;;;;;;;28.27;48.39;102723.13;6126384;23;20416;-83
2022/07/09 07:02:19;;;;;;;30.17;20.88;;;;;;;29.54;44.73;102724.94;6124885;23;20092;-73
2022/07/09 07:04:44;;;;;;;30.40;22.10;;;;;;;29.42;44.15;102703.19;6127350;23;20037;-75
2022/07/09 07:07:10;;;;;;;26.00;18.25;;;;;;;29.41;43.11;102724.66;6100792;23;20006;-79
2022/07/09 07:09:35;;;;;;;26.70;18.13;;;;;;;28.80;43.64;102708.41;6099901;23;20006;-76
2022/07/09 07:12:01;;;;;;;23.17;17.50;;;;;;;27.86;45.52;102706.38;6126192;23;20017;-78
2022/07/09 07:14:27;;;;;;;28.15;21.25;;;;;;;26.98;47.99;102708.56;6126136;23;20074;-79
2022/07/09 07:16:53;;;;;;;27.42;20.98;;;;;;;26.93;48.49;102724.09;6100745;23;20002;-78
2022/07/09 07:19:20;;;;;;;29.73;21.50;;;;;;;27.30;47.79;102704.41;6126336;23;20463;-74
2022/07/09 07:21:46;;;;;;;29.00;23.00;;;;;;;27.91;47.61;102721.78;6099944;23;20017;-79
2022/07/09 07:24:11;;;;;;;29.33;21.73;;;;;;;28.04;47.50;102716.84;6126232;23;20010;-74
2022/07/09 07:26:37;;;;;;;29.80;22.23;;;;;;;27.33;47.67;102725.28;6125893;23;20010;-73
2022/07/09 07:29:03;;;;;;;30.98;20.60;;;;;;;26.36;50.37;102733.50;6126108;23;20029;-77
2022/07/09 07:31:28;;;;;;;23.90;18.05;;;;;;;25.37;52.08;102707.91;6126148;23;20029;-74
2022/07/09 07:33:54;;;;;;;29.33;21.45;;;;;;;25.01;53.33;102719.31;6126213;23;20513;-72
2022/07/09 07:36:19;;;;;;;28.92;21.40;;;;;;;24.60;55.54;102711.66;6126041;23;20364;-75
2022/07/09 07:38:47;;;;;;;32.28;22.27;;;;;;;24.23;56.15;102727.41;6125943;23;20009;-76
2022/07/09 07:41:13;;;;;;;23.00;16.38;;;;;;;23.92;57.18;102733.78;6125593;23;20010;-79
2022/07/09 07:43:39;;;;;;;31.77;22.95;;;;;;;23.50;58.59;102741.88;6126071;23;20357;-78
2022/07/09 07:46:04;;;;;;;24.35;19.23;;;;;;;23.25;59.01;102739.69;6125967;23;20305;-77
2022/07/09 07:48:30;;;;;;;32.20;21.83;;;;;;;22.84;60.05;102723.03;6125905;23;20458;-75
2022/07/09 07:50:56;;;;;;;32.55;21.42;;;;;;;22.83;61.16;102729.22;6125680;23;20065;-77
2022/07/09 07:53:22;;;;;;;27.55;19.23;;;;;;;22.94;61.22;102725.72;6125743;23;20080;-76
2022/07/09 07:55:47;;;;;;;32.58;23.63;;;;;;;22.92;61.44;102731.13;6126074;23;20425;-78
2022/07/09 07:58:13;;;;;;;27.92;20.60;;;;;;;22.65;62.48;102709.72;6125609;23;20416;-77
2022/07/09 08:00:38;;;;;;;27.88;20.85;;;;;;;22.78;61.30;102720.88;6125583;23;20006;-75
2022/07/09 08:03:03;;;;;;;30.30;20.00;;;;;;;22.87;60.96;102725.38;6125849;23;20333;-75
2022/07/09 08:05:29;;;;;;;27.83;17.55;;;;;;;22.94;60.67;102726.53;6125826;23;20006;-77
2022/07/09 08:07:54;;;;;;;25.73;16.58;;;;;;;22.88;59.40;102711.25;6125560;23;20001;-74
2022/07/09 08:10:20;;;;;;;22.48;14.82;;;;;;;22.89;58.01;102676.84;6125848;23;20404;-76
2022/07/09 08:12:45;;;;;;;22.73;17.42;;;;;;;23.45;58.38;102709.78;6099098;23;20379;-72
2022/07/09 08:15:11;;;;;;;18.00;13.10;;;;;;;23.97;57.38;102698.06;6125088;23;20010;-81
2022/07/09 08:17:37;;;;;;;34.55;17.00;;;;;;;24.22;56.63;102693.22;6126724;23;20028;-72
2022/07/09 08:20:03;;;;;;;27.92;19.85;;;;;;;24.20;57.61;102685.44;6125973;23;20129;-77
2022/07/09 08:22:29;;;;;;;25.17;16.42;;;;;;;24.13;56.65;102665.84;6125278;23;20016;-75
2022/07/09 08:24:54;;;;;;;27.05;17.45;;;;;;;24.03;56.40;102647.38;6125327;23;20037;-78
2022/07/09 08:27:19;;;;;;;27.42;17.08;;;;;;;24.43;58.24;102683.34;6125671;23;20032;-75
2022/07/09 08:29:45;;;;;;;22.52;14.77;;;;;;;24.60;56.13;102679.13;6126204;23;20057;-77
2022/07/09 08:32:10;;;;;;;26.17;20.33;;;;;;;24.42;55.71;102636.78;6125923;23;20022;-76
2022/07/09 08:34:35;;;;;;;23.92;15.75;;;;;;;24.94;56.74;102668.84;6125580;23;20010;-76
2022/07/09 08:37:01;;;;;;;26.27;20.75;;;;;;;25.20;54.83;102676.97;6124958;23;20002;-76
2022/07/09 08:39:26;;;;;;;19.05;13.80;;;;;;;25.49;54.49;102675.94;6125636;23;20018;-77
2022/07/09 08:41:53;;;;;;;23.00;17.08;;;;;;;25.45;52.72;102670.94;6125591;23;20045;-76
2022/07/09 08:44:19;;;;;;;21.75;16.92;;;;;;;25.56;53.33;102664.59;6125731;23;20021;-77
2022/07/09 08:46:45;;;;;;;21.65;15.20;;;;;;;25.60;53.44;102681.03;6099070;23;20033;-79
2022/07/09 08:49:11;;;;;;;25.85;20.17;;;;;;;25.38;53.42;102677.00;6124688;23;20128;-80
2022/07/09 08:51:37;;;;;;;28.27;18.90;;;;;;;25.10;54.62;102663.78;6126568;23;20002;-76
2022/07/09 08:54:03;;;;;;;26.80;20.35;;;;;;;24.76;55.53;102681.97;6125432;23;20010;-77
2022/07/09 08:56:28;;;;;;;21.42;15.55;;;;;;;24.43;57.03;102685.16;6124826;23;20081;-71
2022/07/09 08:58:53;;;;;;;27.08;20.77;;;;;;;24.20;56.61;102677.53;6126440;23;20002;-72
2022/07/09 09:01:19;;;;;;;28.55;19.75;;;;;;;24.00;57.38;102673.25;6127648;23;20081;-78
2022/07/09 09:03:45;;;;;;;24.23;17.27;;;;;;;23.93;58.03;102682.69;6127033;23;20074;-83
2022/07/09 09:06:12;;;;;;;30.60;21.17;;;;;;;23.70;58.35;102680.31;6127740;23;20331;-81
2022/07/09 09:08:37;;;;;;;25.40;18.65;;;;;;;23.59;58.21;102685.69;6126995;23;20006;-76
2022/07/09 09:11:08;;;;;;;27.63;18.75;;;;;;;23.37;58.18;102672.72;6127458;23;20009;-80
2022/07/09 09:13:44;;;;;;;25.00;18.80;;;;;;;23.36;58.58;102674.53;6127985;23;20017;-82
2022/07/09 09:16:11;;;;;;;21.63;17.02;;;;;;;23.36;57.63;102658.69;6128049;23;20002;-82
2022/07/09 09:18:40;;;;;;;23.80;17.45;;;;;;;23.51;58.03;102671.50;6127320;23;20002;-76
2022/07/09 09:21:07;;;;;;;19.27;14.93;;;;;;;23.52;58.01;102678.44;6127502;23;20006;-74
2022/07/09 09:24:03;;;;;;;22.00;17.00;;;;;;;23.55;58.29;102673.72;6127102;23;20006;-78
2022/07/09 09:26:28;;;;;;;27.08;19.98;;;;;;;23.22;58.75;102682.00;6037634;23;20008;-78
2022/07/09 09:29:01;;;;;;;24.70;18.60;;;;;;;22.96;60.14;102682.44;6037868;23;20007;-76
2022/07/09 09:31:37;;;;;;;19.70;12.68;;;;;;;22.83;60.86;102661.56;6038043;23;20007;-79
2022/07/09 09:34:13;;;;;;;27.13;18.13;;;;;;;23.03;60.82;102677.50;6027396;23;20066;-72
2022/07/09 09:36:41;;;;;;;34.88;22.63;;;;;;;23.08;60.70;102675.28;6013823;23;20015;-74
2022/07/09 09:39:11;;;;;;;21.63;15.65;;;;;;;22.97;61.16;102657.75;6037815;23;20014;-76
2022/07/09 09:41:37;;;;;;;23.98;16.92;;;;;;;22.96;60.59;102677.16;6037675;23;20038;-76
2022/07/09 09:44:08;;;;;;;26.20;17.05;;;;;;;22.96;61.64;102673.72;6037841;23;20007;-76
2022/07/09 09:46:34;;;;;;;20.95;16.27;;;;;;;23.01;60.53;102684.66;6037920;23;20011;-82
2022/07/09 09:49:00;;;;;;;24.75;17.88;;;;;;;23.10;60.01;102682.06;6036453;23;20078;-79
2022/07/09 09:51:30;;;;;;;24.15;17.77;;;;;;;23.17;60.23;102666.56;6037686;23;20019;-76
2022/07/09 09:53:56;;;;;;;24.85;16.98;;;;;;;23.27;60.20;102671.88;6025201;23;20007;-81
2022/07/09 09:56:23;;;;;;;26.17;17.75;;;;;;;23.39;59.49;102662.88;6037289;23;20042;-79
2022/07/09 09:58:49;;;;;;;18.15;14.88;;;;;;;23.52;60.59;102676.66;6037884;23;20071;-80
2022/07/09 10:01:14;;;;;;;22.80;15.73;;;;;;;23.45;60.51;102664.97;6037427;23;20082;-79
2022/07/09 10:03:40;;;;;;;23.83;17.30;;;;;;;23.39;61.48;102662.88;6113548;23;20014;-80
2022/07/09 10:06:06;;;;;;;22.75;14.70;;;;;;;23.56;60.79;102667.47;6126833;23;20081;-79
2022/07/09 10:08:32;;;;;;;22.23;14.95;;;;;;;23.64;61.45;102674.75;6126976;23;20029;-80
2022/07/09 10:10:57;;;;;;;19.80;16.42;;;;;;;23.44;58.46;102660.66;6126432;23;20001;-79
2022/07/09 10:13:23;;;;;;;22.38;15.63;;;;;;;23.56;59.31;102675.38;6127014;23;20006;-80
2022/07/09 10:15:50;;;;;;;17.50;12.18;;;;;;;23.38;59.57;102640.09;6127501;23;20009;-80
2022/07/09 10:18:19;;;;;;;20.90;14.13;;;;;;;23.55;59.17;102679.00;6127115;23;20009;-78
2022/07/09 10:20:44;;;;;;;19.40;13.63;;;;;;;23.52;58.93;102667.91;6127035;23;20009;-80
2022/07/09 10:23:21;;;;;;;21.92;15.10;;;;;;;23.47;59.50;102669.13;6127126;23;20006;-79
2022/07/09 10:25:46;;;;;;;24.52;16.05;;;;;;;23.50;58.95;102664.53;6126500;23;20440;-78
2022/07/09 10:28:16;;;;;;;19.42;14.90;;;;;;;23.47;59.87;102668.28;6126625;23;20006;-77
2022/07/09 10:30:42;;;;;;;23.40;16.42;;;;;;;23.58;59.22;102657.63;6126891;23;20002;-80
2022/07/09 10:33:12;;;;;;;17.98;13.80;;;;;;;23.52;60.06;102663.47;6126521;23;20013;-78
2022/07/09 10:35:44;;;;;;;19.13;12.63;;;;;;;23.64;60.37;102654.47;6127042;23;20066;-80
2022/07/09 10:38:10;;;;;;;19.55;12.82;;;;;;;23.80;59.66;102646.03;6126403;23;20245;-80
2022/07/09 10:40:41;;;;;;;14.40;10.65;;;;;;;23.81;58.54;102641.56;6126205;23;20022;-77
2022/07/09 10:43:06;;;;;;;13.93;9.20;;;;;;;23.71;57.34;102654.78;6100778;23;20018;-80
2022/07/09 10:45:34;;;;;;;11.73;7.47;;;;;;;23.84;58.16;102660.59;6126420;23;20010;-75
2022/07/09 10:48:02;;;;;;;11.23;7.50;;;;;;;24.09;56.96;102659.19;6126311;23;20459;-76
2022/07/09 10:50:32;;;;;;;11.25;7.15;;;;;;;24.41;55.44;102648.31;6126606;23;20002;-81
2022/07/09 10:52:59;;;;;;;11.82;6.75;;;;;;;24.70;54.00;102644.75;6114911;23;19998;-78
2022/07/09 10:55:26;;;;;;;11.75;6.53;;;;;;;25.14;52.61;102666.97;6100183;23;20097;-77
2022/07/09 10:57:52;;;;;;;10.57;6.05;;;;;;;25.33;51.84;102640.41;6126791;23;20092;-77
2022/07/09 11:00:22;;;;;;;8.20;5.18;;;;;;;25.69;52.24;102654.50;6126877;23;20077;-78
2022/07/09 11:03:06;;;;;;;8.48;5.38;;;;;;;25.72;50.43;102656.84;6126517;23;20002;-77
2022/07/09 11:05:42;;;;;;;9.32;5.38;;;;;;;25.56;51.94;102653.19;6126421;23;20012;-77